sensor_id;sensor_type;location;lat;lon;timestamp;temperature;humidity
11615;DHT22;5863;52.832;4.758;2023-10-31T00:01:15;11.20;99.90
11615;DHT22;5863;52.832;4.758;2023-10-31T00:03:41;11.20;99.90
11615;DHT22;5863;52.832;4.758;2023-10-31T00:06:10;11.20;99.90
11615;DHT22;5863;52.832;4.758;2023-10-31T00:08:38;11.20;99.90
11615;DHT22;5863;52.832;4.758;2023-10-31T00:11:04;11.20;99.90
11615;DHT22;5863;52.832;4.758;2023-10-31T00:13:31;11.20;99.90
11615;DHT22;5863;52.832;4.758;2023-10-31T00:15:58;11.20;99.90
11615;DHT22;5863;52.832;4.758;2023-10-31T00:18:24;11.20;99.90
11615;DHT22;5863;52.832;4.758;2023-10-31T00:20:51;11.20;99.90
11615;DHT22;5863;52.832;4.758;2023-10-31T00:23:18;11.20;99.90
11615;DHT22;5863;52.832;4.758;2023-10-31T00:25:46;11.20;99.90
11615;DHT22;5863;52.832;4.758;2023-10-31T00:28:12;11.20;99.90
11615;DHT22;5863;52.832;4.758;2023-10-31T00:30:39;11.20;99.90
11615;DHT22;5863;52.832;4.758;2023-10-31T00:33:06;11.20;99.90
11615;DHT22;5863;52.832;4.758;2023-10-31T00:35:32;11.20;99.90
11615;DHT22;5863;52.832;4.758;2023-10-31T00:37:59;11.20;99.90
11615;DHT22;5863;52.832;4.758;2023-10-31T00:40:26;11.20;99.90
11615;DHT22;5863;52.832;4.758;2023-10-31T00:42:54;11.20;99.90
11615;DHT22;5863;52.832;4.758;2023-10-31T00:45:24;11.20;99.90
11615;DHT22;5863;52.832;4.758;2023-10-31T00:47:51;11.00;99.90
11615;DHT22;5863;52.832;4.758;2023-10-31T00:50:17;11.20;99.90
11615;DHT22;5863;52.832;4.758;2023-10-31T00:52:44;11.20;99.90
11615;DHT22;5863;52.832;4.758;2023-10-31T00:55:11;11.20;99.90
11615;DHT22;5863;52.832;4.758;2023-10-31T00:57:38;11.20;99.90
11615;DHT22;5863;52.832;4.758;2023-10-31T01:00:07;11.20;99.90
11615;DHT22;5863;52.832;4.758;2023-10-31T01:02:35;11.20;99.90
11615;DHT22;5863;52.832;4.758;2023-10-31T01:05:01;11.20;99.90
11615;DHT22;5863;52.832;4.758;2023-10-31T01:07:28;11.30;99.90
11615;DHT22;5863;52.832;4.758;2023-10-31T01:09:55;11.30;99.90
11615;DHT22;5863;52.832;4.758;2023-10-31T01:12:22;11.30;99.90
11615;DHT22;5863;52.832;4.758;2023-10-31T01:14:48;11.30;99.90
11615;DHT22;5863;52.832;4.758;2023-10-31T01:17:16;11.30;99.90
11615;DHT22;5863;52.832;4.758;2023-10-31T01:19:43;11.30;99.90
11615;DHT22;5863;52.832;4.758;2023-10-31T01:22:10;11.30;99.90
11615;DHT22;5863;52.832;4.758;2023-10-31T01:24:36;11.30;99.90
11615;DHT22;5863;52.832;4.758;2023-10-31T01:27:03;11.30;99.90
11615;DHT22;5863;52.832;4.758;2023-10-31T01:29:30;11.30;99.90
11615;DHT22;5863;52.832;4.758;2023-10-31T01:31:57;11.30;99.90
11615;DHT22;5863;52.832;4.758;2023-10-31T01:34:26;11.30;99.90
11615;DHT22;5863;52.832;4.758;2023-10-31T01:36:53;11.30;99.90
11615;DHT22;5863;52.832;4.758;2023-10-31T01:39:20;11.40;99.90
11615;DHT22;5863;52.832;4.758;2023-10-31T01:41:46;11.30;99.90
11615;DHT22;5863;52.832;4.758;2023-10-31T01:44:14;11.30;99.90
11615;DHT22;5863;52.832;4.758;2023-10-31T01:46:40;11.40;99.90
11615;DHT22;5863;52.832;4.758;2023-10-31T01:49:07;11.30;99.90
11615;DHT22;5863;52.832;4.758;2023-10-31T01:51:35;11.30;99.90
11615;DHT22;5863;52.832;4.758;2023-10-31T01:54:02;11.30;99.90
11615;DHT22;5863;52.832;4.758;2023-10-31T01:56:30;11.30;99.90
11615;DHT22;5863;52.832;4.758;2023-10-31T01:58:56;11.40;99.90
11615;DHT22;5863;52.832;4.758;2023-10-31T02:01:23;11.40;99.90
11615;DHT22;5863;52.832;4.758;2023-10-31T02:03:50;11.40;99.90
11615;DHT22;5863;52.832;4.758;2023-10-31T02:06:16;11.40;99.90
11615;DHT22;5863;52.832;4.758;2023-10-31T02:08:47;11.50;99.90
11615;DHT22;5863;52.832;4.758;2023-10-31T02:11:14;11.50;99.90
11615;DHT22;5863;52.832;4.758;2023-10-31T02:13:41;11.50;99.90
11615;DHT22;5863;52.832;4.758;2023-10-31T02:16:07;11.60;99.90
11615;DHT22;5863;52.832;4.758;2023-10-31T02:18:34;11.60;99.90
11615;DHT22;5863;52.832;4.758;2023-10-31T02:21:01;11.60;99.90
11615;DHT22;5863;52.832;4.758;2023-10-31T02:23:29;11.60;99.90
11615;DHT22;5863;52.832;4.758;2023-10-31T02:25:56;11.60;99.90
11615;DHT22;5863;52.832;4.758;2023-10-31T02:28:23;11.60;99.90
11615;DHT22;5863;52.832;4.758;2023-10-31T02:30:53;11.60;99.90
11615;DHT22;5863;52.832;4.758;2023-10-31T02:33:19;11.60;99.90
11615;DHT22;5863;52.832;4.758;2023-10-31T02:35:46;11.50;99.90
11615;DHT22;5863;52.832;4.758;2023-10-31T02:38:12;11.60;99.90
11615;DHT22;5863;52.832;4.758;2023-10-31T02:40:40;11.60;99.90
11615;DHT22;5863;52.832;4.758;2023-10-31T02:43:07;11.60;99.90
11615;DHT22;5863;52.832;4.758;2023-10-31T02:45:34;11.60;99.90
11615;DHT22;5863;52.832;4.758;2023-10-31T02:48:01;11.60;99.90
11615;DHT22;5863;52.832;4.758;2023-10-31T02:50:27;11.60;99.90
11615;DHT22;5863;52.832;4.758;2023-10-31T02:52:54;11.60;99.90
11615;DHT22;5863;52.832;4.758;2023-10-31T02:55:21;11.60;99.90
11615;DHT22;5863;52.832;4.758;2023-10-31T02:57:49;11.60;99.90
11615;DHT22;5863;52.832;4.758;2023-10-31T03:00:16;11.60;99.90
11615;DHT22;5863;52.832;4.758;2023-10-31T03:02:43;11.70;99.90
11615;DHT22;5863;52.832;4.758;2023-10-31T03:05:09;11.80;99.90
11615;DHT22;5863;52.832;4.758;2023-10-31T03:07:36;11.80;99.90
11615;DHT22;5863;52.832;4.758;2023-10-31T03:10:03;11.80;99.90
11615;DHT22;5863;52.832;4.758;2023-10-31T03:12:30;11.80;99.90
11615;DHT22;5863;52.832;4.758;2023-10-31T03:14:58;11.80;99.90
11615;DHT22;5863;52.832;4.758;2023-10-31T03:17:28;11.90;99.90
11615;DHT22;5863;52.832;4.758;2023-10-31T03:19:54;11.90;99.90
11615;DHT22;5863;52.832;4.758;2023-10-31T03:22:21;11.90;99.90
11615;DHT22;5863;52.832;4.758;2023-10-31T03:24:48;11.90;99.90
11615;DHT22;5863;52.832;4.758;2023-10-31T03:27:14;11.90;99.90
11615;DHT22;5863;52.832;4.758;2023-10-31T03:29:41;11.90;99.90
11615;DHT22;5863;52.832;4.758;2023-10-31T03:32:09;11.90;99.90
11615;DHT22;5863;52.832;4.758;2023-10-31T03:34:36;11.90;99.90
11615;DHT22;5863;52.832;4.758;2023-10-31T03:37:03;11.90;99.90
11615;DHT22;5863;52.832;4.758;2023-10-31T03:39:30;12.00;99.90
11615;DHT22;5863;52.832;4.758;2023-10-31T03:41:57;12.00;99.90
11615;DHT22;5863;52.832;4.758;2023-10-31T03:44:23;12.00;99.90
11615;DHT22;5863;52.832;4.758;2023-10-31T03:46:50;12.00;99.90
11615;DHT22;5863;52.832;4.758;2023-10-31T03:49:18;11.90;99.90
11615;DHT22;5863;52.832;4.758;2023-10-31T03:51:45;11.90;99.90
11615;DHT22;5863;52.832;4.758;2023-10-31T03:54:12;12.00;99.90
11615;DHT22;5863;52.832;4.758;2023-10-31T03:56:39;12.00;99.90
11615;DHT22;5863;52.832;4.758;2023-10-31T03:59:06;12.00;99.90
11615;DHT22;5863;52.832;4.758;2023-10-31T04:01:33;11.90;99.90
11615;DHT22;5863;52.832;4.758;2023-10-31T04:03:59;11.90;99.90
11615;DHT22;5863;52.832;4.758;2023-10-31T04:06:28;11.90;99.90
11615;DHT22;5863;52.832;4.758;2023-10-31T04:08:57;11.80;99.90
11615;DHT22;5863;52.832;4.758;2023-10-31T04:11:23;11.80;99.90
11615;DHT22;5863;52.832;4.758;2023-10-31T04:13:50;11.80;99.90
11615;DHT22;5863;52.832;4.758;2023-10-31T04:16:17;11.80;99.90
11615;DHT22;5863;52.832;4.758;2023-10-31T04:18:43;11.80;99.90
11615;DHT22;5863;52.832;4.758;2023-10-31T04:21:10;11.80;99.90
11615;DHT22;5863;52.832;4.758;2023-10-31T04:23:38;11.90;99.90
11615;DHT22;5863;52.832;4.758;2023-10-31T04:26:05;11.90;99.90
11615;DHT22;5863;52.832;4.758;2023-10-31T04:28:32;11.90;99.90
11615;DHT22;5863;52.832;4.758;2023-10-31T04:30:58;11.90;99.90
11615;DHT22;5863;52.832;4.758;2023-10-31T04:33:25;11.90;99.90
11615;DHT22;5863;52.832;4.758;2023-10-31T04:35:52;11.80;99.90
11615;DHT22;5863;52.832;4.758;2023-10-31T04:38:18;11.80;99.90
11615;DHT22;5863;52.832;4.758;2023-10-31T04:40:46;11.80;99.90
11615;DHT22;5863;52.832;4.758;2023-10-31T04:43:13;11.80;99.90
11615;DHT22;5863;52.832;4.758;2023-10-31T04:45:40;11.80;99.90
11615;DHT22;5863;52.832;4.758;2023-10-31T04:48:07;11.80;99.90
11615;DHT22;5863;52.832;4.758;2023-10-31T04:50:33;11.80;99.90
11615;DHT22;5863;52.832;4.758;2023-10-31T04:53:00;11.80;99.90
11615;DHT22;5863;52.832;4.758;2023-10-31T04:55:27;11.80;99.90
11615;DHT22;5863;52.832;4.758;2023-10-31T04:57:57;11.80;99.90
11615;DHT22;5863;52.832;4.758;2023-10-31T05:00:24;11.80;99.90
11615;DHT22;5863;52.832;4.758;2023-10-31T05:02:51;11.80;99.90
11615;DHT22;5863;52.832;4.758;2023-10-31T05:05:18;11.80;99.90
11615;DHT22;5863;52.832;4.758;2023-10-31T05:07:45;11.80;99.90
11615;DHT22;5863;52.832;4.758;2023-10-31T05:10:11;11.80;99.90
11615;DHT22;5863;52.832;4.758;2023-10-31T05:12:38;11.80;99.90
11615;DHT22;5863;52.832;4.758;2023-10-31T05:15:07;11.70;99.90
11615;DHT22;5863;52.832;4.758;2023-10-31T05:17:34;11.70;99.90
11615;DHT22;5863;52.832;4.758;2023-10-31T05:20:01;11.70;99.90
11615;DHT22;5863;52.832;4.758;2023-10-31T05:22:28;11.80;99.90
11615;DHT22;5863;52.832;4.758;2023-10-31T05:24:55;11.80;99.90
11615;DHT22;5863;52.832;4.758;2023-10-31T05:27:21;11.80;99.90
11615;DHT22;5863;52.832;4.758;2023-10-31T05:29:48;11.90;99.90
11615;DHT22;5863;52.832;4.758;2023-10-31T05:32:16;11.80;99.90
11615;DHT22;5863;52.832;4.758;2023-10-31T05:34:42;11.80;99.90
11615;DHT22;5863;52.832;4.758;2023-10-31T05:37:09;11.80;99.90
11615;DHT22;5863;52.832;4.758;2023-10-31T05:39:36;11.80;99.90
11615;DHT22;5863;52.832;4.758;2023-10-31T05:42:03;11.80;99.90
11615;DHT22;5863;52.832;4.758;2023-10-31T05:44:30;11.80;99.90
11615;DHT22;5863;52.832;4.758;2023-10-31T05:46:56;11.80;99.90
11615;DHT22;5863;52.832;4.758;2023-10-31T05:49:24;11.80;99.90
11615;DHT22;5863;52.832;4.758;2023-10-31T05:51:51;11.70;99.90
11615;DHT22;5863;52.832;4.758;2023-10-31T05:54:18;11.70;99.90
11615;DHT22;5863;52.832;4.758;2023-10-31T05:56:45;11.70;99.90
11615;DHT22;5863;52.832;4.758;2023-10-31T05:59:11;11.70;99.90
11615;DHT22;5863;52.832;4.758;2023-10-31T06:01:38;11.70;99.90
11615;DHT22;5863;52.832;4.758;2023-10-31T06:04:05;11.70;99.90
11615;DHT22;5863;52.832;4.758;2023-10-31T06:06:36;11.70;99.90
11615;DHT22;5863;52.832;4.758;2023-10-31T06:09:03;11.70;99.90
11615;DHT22;5863;52.832;4.758;2023-10-31T06:11:30;11.70;99.90
11615;DHT22;5863;52.832;4.758;2023-10-31T06:13:57;11.80;99.90
11615;DHT22;5863;52.832;4.758;2023-10-31T06:16:26;11.80;99.90
11615;DHT22;5863;52.832;4.758;2023-10-31T06:18:53;11.80;99.90
11615;DHT22;5863;52.832;4.758;2023-10-31T06:21:20;11.80;99.90
11615;DHT22;5863;52.832;4.758;2023-10-31T06:23:48;11.80;99.90
11615;DHT22;5863;52.832;4.758;2023-10-31T06:26:14;11.80;99.90
11615;DHT22;5863;52.832;4.758;2023-10-31T06:28:41;11.80;99.90
11615;DHT22;5863;52.832;4.758;2023-10-31T06:31:08;11.70;99.90
11615;DHT22;5863;52.832;4.758;2023-10-31T06:33:34;11.60;99.90
11615;DHT22;5863;52.832;4.758;2023-10-31T06:36:02;11.60;99.90
11615;DHT22;5863;52.832;4.758;2023-10-31T06:38:28;11.50;99.90
11615;DHT22;5863;52.832;4.758;2023-10-31T06:40:56;11.50;99.90
11615;DHT22;5863;52.832;4.758;2023-10-31T06:43:23;11.50;99.90
11615;DHT22;5863;52.832;4.758;2023-10-31T06:45:50;11.50;99.90
11615;DHT22;5863;52.832;4.758;2023-10-31T06:48:16;11.40;99.90
11615;DHT22;5863;52.832;4.758;2023-10-31T06:50:43;11.40;99.90
11615;DHT22;5863;52.832;4.758;2023-10-31T06:53:10;11.30;99.90
11615;DHT22;5863;52.832;4.758;2023-10-31T06:55:37;11.30;99.90
11615;DHT22;5863;52.832;4.758;2023-10-31T06:58:05;11.30;99.90
11615;DHT22;5863;52.832;4.758;2023-10-31T07:00:31;11.30;99.90
11615;DHT22;5863;52.832;4.758;2023-10-31T07:02:58;11.30;99.90
11615;DHT22;5863;52.832;4.758;2023-10-31T07:05:30;11.20;99.90
11615;DHT22;5863;52.832;4.758;2023-10-31T07:07:56;11.20;99.90
11615;DHT22;5863;52.832;4.758;2023-10-31T07:10:23;11.10;99.90
11615;DHT22;5863;52.832;4.758;2023-10-31T07:12:50;11.30;99.90
11615;DHT22;5863;52.832;4.758;2023-10-31T07:15:18;11.30;99.90
11615;DHT22;5863;52.832;4.758;2023-10-31T07:17:45;11.20;99.90
11615;DHT22;5863;52.832;4.758;2023-10-31T07:20:11;11.30;99.90
11615;DHT22;5863;52.832;4.758;2023-10-31T07:22:38;11.30;99.90
11615;DHT22;5863;52.832;4.758;2023-10-31T07:25:05;11.30;99.90
11615;DHT22;5863;52.832;4.758;2023-10-31T07:27:32;11.40;99.90
11615;DHT22;5863;52.832;4.758;2023-10-31T07:29:59;11.60;99.90
11615;DHT22;5863;52.832;4.758;2023-10-31T07:32:27;11.60;99.90
11615;DHT22;5863;52.832;4.758;2023-10-31T07:34:54;11.70;99.90
11615;DHT22;5863;52.832;4.758;2023-10-31T07:37:20;11.70;99.90
11615;DHT22;5863;52.832;4.758;2023-10-31T07:39:47;11.70;99.90
11615;DHT22;5863;52.832;4.758;2023-10-31T07:42:14;11.80;99.90
11615;DHT22;5863;52.832;4.758;2023-10-31T07:44:41;11.80;99.90
11615;DHT22;5863;52.832;4.758;2023-10-31T07:47:07;11.90;99.90
11615;DHT22;5863;52.832;4.758;2023-10-31T07:49:35;11.90;99.90
11615;DHT22;5863;52.832;4.758;2023-10-31T07:52:02;11.90;99.90
11615;DHT22;5863;52.832;4.758;2023-10-31T07:54:29;12.00;99.90
11615;DHT22;5863;52.832;4.758;2023-10-31T07:56:55;12.00;99.90
11615;DHT22;5863;52.832;4.758;2023-10-31T07:59:22;12.00;99.90
11615;DHT22;5863;52.832;4.758;2023-10-31T08:01:49;12.00;99.90
11615;DHT22;5863;52.832;4.758;2023-10-31T08:04:17;12.10;99.90
11615;DHT22;5863;52.832;4.758;2023-10-31T08:06:45;12.10;99.90
11615;DHT22;5863;52.832;4.758;2023-10-31T08:09:12;12.20;99.90
11615;DHT22;5863;52.832;4.758;2023-10-31T08:11:38;12.20;99.90
11615;DHT22;5863;52.832;4.758;2023-10-31T08:14:05;12.20;99.90
11615;DHT22;5863;52.832;4.758;2023-10-31T08:16:32;12.30;99.90
11615;DHT22;5863;52.832;4.758;2023-10-31T08:18:59;12.30;99.90
11615;DHT22;5863;52.832;4.758;2023-10-31T08:21:26;12.30;99.90
11615;DHT22;5863;52.832;4.758;2023-10-31T08:23:55;12.30;99.90
11615;DHT22;5863;52.832;4.758;2023-10-31T08:26:21;12.40;99.90
11615;DHT22;5863;52.832;4.758;2023-10-31T08:28:48;12.40;99.90
11615;DHT22;5863;52.832;4.758;2023-10-31T08:31:15;12.50;99.90
11615;DHT22;5863;52.832;4.758;2023-10-31T08:33:41;12.50;99.90
11615;DHT22;5863;52.832;4.758;2023-10-31T08:36:09;12.50;99.90
11615;DHT22;5863;52.832;4.758;2023-10-31T08:38:35;12.50;99.90
11615;DHT22;5863;52.832;4.758;2023-10-31T08:41:04;12.60;99.90
11615;DHT22;5863;52.832;4.758;2023-10-31T08:43:30;12.70;99.90
11615;DHT22;5863;52.832;4.758;2023-10-31T08:45:57;12.80;99.90
11615;DHT22;5863;52.832;4.758;2023-10-31T08:48:24;12.90;99.90
11615;DHT22;5863;52.832;4.758;2023-10-31T08:50:50;12.90;99.90
11615;DHT22;5863;52.832;4.758;2023-10-31T08:53:17;12.90;99.90
11615;DHT22;5863;52.832;4.758;2023-10-31T08:55:44;13.00;99.90
11615;DHT22;5863;52.832;4.758;2023-10-31T08:58:13;13.00;99.90
11615;DHT22;5863;52.832;4.758;2023-10-31T09:00:40;13.00;99.90
11615;DHT22;5863;52.832;4.758;2023-10-31T09:03:07;13.00;99.90
11615;DHT22;5863;52.832;4.758;2023-10-31T09:05:34;13.00;99.90
11615;DHT22;5863;52.832;4.758;2023-10-31T09:08:01;13.00;99.90
11615;DHT22;5863;52.832;4.758;2023-10-31T09:10:27;13.00;99.90
11615;DHT22;5863;52.832;4.758;2023-10-31T09:12:54;13.00;99.90
11615;DHT22;5863;52.832;4.758;2023-10-31T09:15:22;12.90;99.90
11615;DHT22;5863;52.832;4.758;2023-10-31T09:17:49;13.00;99.90
11615;DHT22;5863;52.832;4.758;2023-10-31T09:20:16;13.00;99.90
11615;DHT22;5863;52.832;4.758;2023-10-31T09:22:42;13.00;99.90
11615;DHT22;5863;52.832;4.758;2023-10-31T09:25:09;13.10;99.90
11615;DHT22;5863;52.832;4.758;2023-10-31T09:27:37;13.20;99.90
11615;DHT22;5863;52.832;4.758;2023-10-31T09:30:05;13.20;99.90
11615;DHT22;5863;52.832;4.758;2023-10-31T09:32:33;13.30;99.90
11615;DHT22;5863;52.832;4.758;2023-10-31T09:35:00;13.30;99.90
11615;DHT22;5863;52.832;4.758;2023-10-31T09:37:26;13.30;99.90
11615;DHT22;5863;52.832;4.758;2023-10-31T09:39:53;13.40;99.90
11615;DHT22;5863;52.832;4.758;2023-10-31T09:42:20;13.50;99.90
11615;DHT22;5863;52.832;4.758;2023-10-31T09:44:46;13.60;99.90
11615;DHT22;5863;52.832;4.758;2023-10-31T09:47:13;13.60;99.90
11615;DHT22;5863;52.832;4.758;2023-10-31T09:49:43;13.70;99.90
11615;DHT22;5863;52.832;4.758;2023-10-31T09:52:11;13.70;99.90
11615;DHT22;5863;52.832;4.758;2023-10-31T09:54:38;13.70;99.90
11615;DHT22;5863;52.832;4.758;2023-10-31T09:57:05;13.90;99.90
11615;DHT22;5863;52.832;4.758;2023-10-31T09:59:32;13.90;99.90
11615;DHT22;5863;52.832;4.758;2023-10-31T10:01:59;13.80;99.90
11615;DHT22;5863;52.832;4.758;2023-10-31T10:04:26;13.90;99.90
11615;DHT22;5863;52.832;4.758;2023-10-31T10:07:00;14.00;99.90
11615;DHT22;5863;52.832;4.758;2023-10-31T10:09:27;14.10;99.90
11615;DHT22;5863;52.832;4.758;2023-10-31T10:11:54;14.10;99.90
11615;DHT22;5863;52.832;4.758;2023-10-31T10:14:23;14.10;99.90
11615;DHT22;5863;52.832;4.758;2023-10-31T10:16:50;14.20;99.90
11615;DHT22;5863;52.832;4.758;2023-10-31T10:19:18;14.20;99.90
11615;DHT22;5863;52.832;4.758;2023-10-31T10:21:49;14.20;99.90
11615;DHT22;5863;52.832;4.758;2023-10-31T10:24:18;14.10;99.90
11615;DHT22;5863;52.832;4.758;2023-10-31T10:26:45;14.20;99.90
11615;DHT22;5863;52.832;4.758;2023-10-31T10:29:12;14.20;99.90
11615;DHT22;5863;52.832;4.758;2023-10-31T10:31:38;14.20;99.90
11615;DHT22;5863;52.832;4.758;2023-10-31T10:34:06;14.20;99.90
11615;DHT22;5863;52.832;4.758;2023-10-31T10:36:33;14.30;99.90
11615;DHT22;5863;52.832;4.758;2023-10-31T10:39:00;14.40;99.90
11615;DHT22;5863;52.832;4.758;2023-10-31T10:41:28;14.60;99.90
11615;DHT22;5863;52.832;4.758;2023-10-31T10:44:03;14.70;99.90
11615;DHT22;5863;52.832;4.758;2023-10-31T10:46:33;14.60;99.90
11615;DHT22;5863;52.832;4.758;2023-10-31T10:49:04;14.80;99.90
11615;DHT22;5863;52.832;4.758;2023-10-31T10:51:39;14.80;99.90
11615;DHT22;5863;52.832;4.758;2023-10-31T10:54:11;14.80;99.90
11615;DHT22;5863;52.832;4.758;2023-10-31T10:56:46;15.00;99.90
11615;DHT22;5863;52.832;4.758;2023-10-31T10:59:20;15.00;99.90
11615;DHT22;5863;52.832;4.758;2023-10-31T11:01:47;15.10;99.90
11615;DHT22;5863;52.832;4.758;2023-10-31T11:04:16;15.10;99.90
11615;DHT22;5863;52.832;4.758;2023-10-31T11:06:43;15.40;99.90
11615;DHT22;5863;52.832;4.758;2023-10-31T11:09:11;15.60;99.90
11615;DHT22;5863;52.832;4.758;2023-10-31T11:11:40;15.60;99.90
11615;DHT22;5863;52.832;4.758;2023-10-31T11:14:15;15.70;99.90
11615;DHT22;5863;52.832;4.758;2023-10-31T11:16:45;15.80;99.90
11615;DHT22;5863;52.832;4.758;2023-10-31T11:19:15;15.80;99.90
11615;DHT22;5863;52.832;4.758;2023-10-31T11:21:58;15.80;99.90
11615;DHT22;5863;52.832;4.758;2023-10-31T11:24:26;15.60;99.90
11615;DHT22;5863;52.832;4.758;2023-10-31T11:26:57;15.60;99.90
11615;DHT22;5863;52.832;4.758;2023-10-31T11:29:26;15.60;99.90
11615;DHT22;5863;52.832;4.758;2023-10-31T11:31:54;15.60;99.90
11615;DHT22;5863;52.832;4.758;2023-10-31T11:34:21;15.60;99.90
11615;DHT22;5863;52.832;4.758;2023-10-31T11:36:47;15.60;99.90
11615;DHT22;5863;52.832;4.758;2023-10-31T11:39:17;15.60;99.90
11615;DHT22;5863;52.832;4.758;2023-10-31T11:41:48;15.50;99.90
11615;DHT22;5863;52.832;4.758;2023-10-31T11:44:16;15.60;99.90
11615;DHT22;5863;52.832;4.758;2023-10-31T11:46:44;15.70;99.90
11615;DHT22;5863;52.832;4.758;2023-10-31T11:49:14;15.70;99.90
11615;DHT22;5863;52.832;4.758;2023-10-31T11:51:41;15.80;99.90
11615;DHT22;5863;52.832;4.758;2023-10-31T11:54:12;15.80;99.90
11615;DHT22;5863;52.832;4.758;2023-10-31T11:56:39;15.80;99.90
11615;DHT22;5863;52.832;4.758;2023-10-31T11:59:06;15.70;99.90
11615;DHT22;5863;52.832;4.758;2023-10-31T12:01:33;15.50;99.90
11615;DHT22;5863;52.832;4.758;2023-10-31T12:04:01;15.70;99.90
11615;DHT22;5863;52.832;4.758;2023-10-31T12:06:29;15.70;99.90
11615;DHT22;5863;52.832;4.758;2023-10-31T12:08:59;15.70;99.90
11615;DHT22;5863;52.832;4.758;2023-10-31T12:11:26;15.60;99.90
11615;DHT22;5863;52.832;4.758;2023-10-31T12:13:54;15.50;99.90
11615;DHT22;5863;52.832;4.758;2023-10-31T12:16:23;15.50;99.90
11615;DHT22;5863;52.832;4.758;2023-10-31T12:18:54;15.50;99.90
11615;DHT22;5863;52.832;4.758;2023-10-31T12:21:36;15.40;99.90
11615;DHT22;5863;52.832;4.758;2023-10-31T12:24:04;15.50;99.90
11615;DHT22;5863;52.832;4.758;2023-10-31T12:26:32;15.40;99.90
11615;DHT22;5863;52.832;4.758;2023-10-31T12:29:12;15.30;99.90
11615;DHT22;5863;52.832;4.758;2023-10-31T12:31:41;15.30;99.90
11615;DHT22;5863;52.832;4.758;2023-10-31T12:34:09;15.30;99.90
11615;DHT22;5863;52.832;4.758;2023-10-31T12:36:38;15.30;99.90
11615;DHT22;5863;52.832;4.758;2023-10-31T12:39:07;15.40;99.90
11615;DHT22;5863;52.832;4.758;2023-10-31T12:41:35;15.50;99.90
11615;DHT22;5863;52.832;4.758;2023-10-31T12:44:02;15.40;99.90
11615;DHT22;5863;52.832;4.758;2023-10-31T12:46:31;15.40;99.90
11615;DHT22;5863;52.832;4.758;2023-10-31T12:48:58;15.40;99.90
11615;DHT22;5863;52.832;4.758;2023-10-31T12:51:25;15.40;99.90
11615;DHT22;5863;52.832;4.758;2023-10-31T12:53:53;15.50;99.90
11615;DHT22;5863;52.832;4.758;2023-10-31T12:56:37;15.40;99.90
11615;DHT22;5863;52.832;4.758;2023-10-31T12:59:05;15.40;99.90
11615;DHT22;5863;52.832;4.758;2023-10-31T13:01:33;15.30;99.90
11615;DHT22;5863;52.832;4.758;2023-10-31T13:03:59;15.30;99.90
11615;DHT22;5863;52.832;4.758;2023-10-31T13:06:26;15.30;99.90
11615;DHT22;5863;52.832;4.758;2023-10-31T13:08:56;15.30;99.90
11615;DHT22;5863;52.832;4.758;2023-10-31T13:11:23;15.10;99.90
11615;DHT22;5863;52.832;4.758;2023-10-31T13:13:52;15.00;99.90
11615;DHT22;5863;52.832;4.758;2023-10-31T13:16:19;15.00;99.90
11615;DHT22;5863;52.832;4.758;2023-10-31T13:18:46;14.90;99.90
11615;DHT22;5863;52.832;4.758;2023-10-31T13:21:13;14.80;99.90
11615;DHT22;5863;52.832;4.758;2023-10-31T13:23:40;14.70;99.90
11615;DHT22;5863;52.832;4.758;2023-10-31T13:26:10;14.60;99.90
11615;DHT22;5863;52.832;4.758;2023-10-31T13:28:37;14.50;99.90
11615;DHT22;5863;52.832;4.758;2023-10-31T13:31:05;14.60;99.90
11615;DHT22;5863;52.832;4.758;2023-10-31T13:33:32;14.50;99.90
11615;DHT22;5863;52.832;4.758;2023-10-31T13:35:58;14.40;99.90
11615;DHT22;5863;52.832;4.758;2023-10-31T13:38:25;14.30;99.90
11615;DHT22;5863;52.832;4.758;2023-10-31T13:40:52;14.30;99.90
11615;DHT22;5863;52.832;4.758;2023-10-31T13:43:20;14.20;99.90
11615;DHT22;5863;52.832;4.758;2023-10-31T13:45:46;14.20;99.90
11615;DHT22;5863;52.832;4.758;2023-10-31T13:48:13;14.20;99.90
11615;DHT22;5863;52.832;4.758;2023-10-31T13:50:40;14.20;99.90
11615;DHT22;5863;52.832;4.758;2023-10-31T13:53:07;14.20;99.90
11615;DHT22;5863;52.832;4.758;2023-10-31T13:55:34;14.20;99.90
11615;DHT22;5863;52.832;4.758;2023-10-31T13:58:01;14.20;99.90
11615;DHT22;5863;52.832;4.758;2023-10-31T14:00:29;14.20;99.90
11615;DHT22;5863;52.832;4.758;2023-10-31T14:02:56;14.20;99.90
11615;DHT22;5863;52.832;4.758;2023-10-31T14:05:22;14.10;99.90
11615;DHT22;5863;52.832;4.758;2023-10-31T14:07:50;14.10;99.90
11615;DHT22;5863;52.832;4.758;2023-10-31T14:10:17;14.10;99.90
11615;DHT22;5863;52.832;4.758;2023-10-31T14:12:45;14.00;99.90
11615;DHT22;5863;52.832;4.758;2023-10-31T14:15:12;14.00;99.90
11615;DHT22;5863;52.832;4.758;2023-10-31T14:17:40;14.00;99.90
11615;DHT22;5863;52.832;4.758;2023-10-31T14:20:08;14.00;99.90
11615;DHT22;5863;52.832;4.758;2023-10-31T14:22:34;13.90;99.90
11615;DHT22;5863;52.832;4.758;2023-10-31T14:25:01;13.90;99.90
11615;DHT22;5863;52.832;4.758;2023-10-31T14:27:30;13.90;99.90
11615;DHT22;5863;52.832;4.758;2023-10-31T14:29:57;13.80;99.90
11615;DHT22;5863;52.832;4.758;2023-10-31T14:32:24;13.70;99.90
11615;DHT22;5863;52.832;4.758;2023-10-31T14:34:52;13.70;99.90
11615;DHT22;5863;52.832;4.758;2023-10-31T14:37:18;13.70;99.90
11615;DHT22;5863;52.832;4.758;2023-10-31T14:39:45;13.70;99.90
11615;DHT22;5863;52.832;4.758;2023-10-31T14:42:12;13.60;99.90
11615;DHT22;5863;52.832;4.758;2023-10-31T14:44:38;13.60;99.90
11615;DHT22;5863;52.832;4.758;2023-10-31T14:47:05;13.50;99.90
11615;DHT22;5863;52.832;4.758;2023-10-31T14:49:32;13.50;99.90
11615;DHT22;5863;52.832;4.758;2023-10-31T14:52:00;13.50;99.90
11615;DHT22;5863;52.832;4.758;2023-10-31T14:54:27;13.40;99.90
11615;DHT22;5863;52.832;4.758;2023-10-31T14:56:54;13.40;99.90
11615;DHT22;5863;52.832;4.758;2023-10-31T14:59:21;13.40;99.90
11615;DHT22;5863;52.832;4.758;2023-10-31T15:01:48;13.30;99.90
11615;DHT22;5863;52.832;4.758;2023-10-31T15:04:14;13.30;99.90
11615;DHT22;5863;52.832;4.758;2023-10-31T15:06:42;13.20;99.90
11615;DHT22;5863;52.832;4.758;2023-10-31T15:09:11;13.20;99.90
11615;DHT22;5863;52.832;4.758;2023-10-31T15:11:37;13.20;99.90
11615;DHT22;5863;52.832;4.758;2023-10-31T15:14:04;13.10;99.90
11615;DHT22;5863;52.832;4.758;2023-10-31T15:16:31;13.00;99.90
11615;DHT22;5863;52.832;4.758;2023-10-31T15:18:58;13.00;99.90
11615;DHT22;5863;52.832;4.758;2023-10-31T15:21:25;13.00;99.90
11615;DHT22;5863;52.832;4.758;2023-10-31T15:23:51;13.00;99.90
11615;DHT22;5863;52.832;4.758;2023-10-31T15:26:19;13.00;99.90
11615;DHT22;5863;52.832;4.758;2023-10-31T15:28:50;13.00;99.90
11615;DHT22;5863;52.832;4.758;2023-10-31T15:31:16;12.90;99.90
11615;DHT22;5863;52.832;4.758;2023-10-31T15:33:43;12.90;99.90
11615;DHT22;5863;52.832;4.758;2023-10-31T15:36:10;12.90;99.90
11615;DHT22;5863;52.832;4.758;2023-10-31T15:38:38;12.90;99.90
11615;DHT22;5863;52.832;4.758;2023-10-31T15:41:07;12.90;99.90
11615;DHT22;5863;52.832;4.758;2023-10-31T15:43:35;12.80;99.90
11615;DHT22;5863;52.832;4.758;2023-10-31T15:46:02;12.80;99.90